createdAt,value
2022-09-05T00:02:48.140Z,33.52
2022-09-05T00:06:02.707Z,33.51
2022-09-05T00:08:55.362Z,33.52
2022-09-05T00:11:43.000Z,33.52
2022-09-05T00:15:17.576Z,33.52
2022-09-05T00:21:08.197Z,33.52
2022-09-05T00:24:31.894Z,33.51
2022-09-05T00:24:36.822Z,33.52
2022-09-05T00:27:20.670Z,33.48
2022-09-05T00:30:41.987Z,33.49
2022-09-05T00:33:32.548Z,33.46
2022-09-05T00:36:38.924Z,33.46
2022-09-05T00:39:21.207Z,33.44
2022-09-05T00:41:55.910Z,33.45
2022-09-05T00:44:33.904Z,33.46
2022-09-05T00:47:15.982Z,33.46
2022-09-05T00:49:52.496Z,33.46
2022-09-05T00:52:33.389Z,33.47
2022-09-05T00:55:21.237Z,33.46
2022-09-05T00:58:21.076Z,33.45
2022-09-05T01:00:56.955Z,33.44
2022-09-05T01:03:55.034Z,33.44
2022-09-05T01:06:51.203Z,33.43
2022-09-05T01:09:41.827Z,33.43
2022-09-05T01:12:52.670Z,33.43
2022-09-05T01:15:34.570Z,33.43
2022-09-05T01:18:42.765Z,33.44
2022-09-05T01:22:11.127Z,33.42
2022-09-05T01:25:11.504Z,33.43
2022-09-05T01:29:13.364Z,33.42
2022-09-05T01:31:07.244Z,33.43
2022-09-05T01:33:54.518Z,33.42
2022-09-05T01:36:52.321Z,33.42
2022-09-05T01:40:14.413Z,33.42
2022-09-05T01:42:43.562Z,33.40
2022-09-05T01:45:30.770Z,33.40
2022-09-05T01:48:18.339Z,33.41
2022-09-05T01:51:02.716Z,33.42
2022-09-05T01:53:45.333Z,33.41
2022-09-05T01:56:37.858Z,33.41
2022-09-05T01:59:25.245Z,33.40
2022-09-05T02:02:25.157Z,33.40
2022-09-05T02:05:48.602Z,33.39
2022-09-05T02:09:03.894Z,33.37
2022-09-05T02:11:51.905Z,33.37
2022-09-05T02:14:39.137Z,33.37
2022-09-05T02:17:48.143Z,33.34
2022-09-05T02:20:29.429Z,33.32
2022-09-05T02:23:31.053Z,33.33
2022-09-05T02:26:10.495Z,33.32
2022-09-05T02:28:55.380Z,33.32
2022-09-05T02:31:37.741Z,33.31
2022-09-05T02:34:20.163Z,33.31
2022-09-05T02:37:03.733Z,33.30
2022-09-05T02:45:06.741Z,33.27
2022-09-05T02:45:09.054Z,33.29
2022-09-05T02:46:07.039Z,33.25
2022-09-05T02:48:54.168Z,33.25
2022-09-05T02:57:23.786Z,33.26
2022-09-05T02:57:39.659Z,33.24
2022-09-05T02:58:06.960Z,33.23
2022-09-05T03:00:45.316Z,33.21
2022-09-05T03:03:37.093Z,33.21
2022-09-05T03:06:34.902Z,33.21
2022-09-05T03:09:29.457Z,33.20
2022-09-05T03:12:59.747Z,33.19
2022-09-05T03:16:47.010Z,33.15
2022-09-05T03:20:06.047Z,33.14
2022-09-05T03:23:29.823Z,33.12
2022-09-05T03:27:00.238Z,33.09
2022-09-05T03:30:09.309Z,33.05
2022-09-05T03:33:45.681Z,33.01
2022-09-05T03:37:23.562Z,32.96
2022-09-05T03:40:49.267Z,32.94
2022-09-05T03:44:08.071Z,32.94
2022-09-05T03:47:16.807Z,32.96
2022-09-05T03:56:32.398Z,32.97
2022-09-05T03:57:16.673Z,32.98
2022-09-05T03:57:46.568Z,32.97
2022-09-05T04:00:25.319Z,32.99
2022-09-05T04:08:11.352Z,32.99
2022-09-05T04:08:17.764Z,33.00
2022-09-05T04:09:49.600Z,33.00
2022-09-05T04:12:22.528Z,33.02
2022-09-05T04:15:01.363Z,33.04
2022-09-05T04:17:39.922Z,33.02
2022-09-05T04:20:19.382Z,33.04
2022-09-05T04:23:30.972Z,33.05
2022-09-05T04:26:30.813Z,33.06
2022-09-05T04:29:18.359Z,33.07
2022-09-05T04:32:18.853Z,33.10
2022-09-05T04:35:24.604Z,33.12
2022-09-05T04:38:00.986Z,33.14
2022-09-05T04:40:58.891Z,33.17
2022-09-05T04:43:37.685Z,33.19
2022-09-05T04:46:30.430Z,33.20
2022-09-05T04:49:10.150Z,33.23
2022-09-05T04:52:21.897Z,33.26
2022-09-05T04:55:11.660Z,33.27
2022-09-05T04:57:50.748Z,33.30
2022-09-05T05:05:58.139Z,33.33
2022-09-05T05:06:10.494Z,33.37
2022-09-05T05:06:45.354Z,33.40
2022-09-05T05:09:27.022Z,33.43
2022-09-05T05:17:55.706Z,33.47
2022-09-05T05:18:07.944Z,33.51
2022-09-05T05:18:36.607Z,33.56
2022-09-05T05:21:02.398Z,33.60
2022-09-05T05:23:41.760Z,33.63
2022-09-05T05:26:22.605Z,33.67
2022-09-05T05:29:02.212Z,33.72
2022-09-05T05:31:35.642Z,33.77
2022-09-05T05:34:24.546Z,33.84
2022-09-05T05:37:03.329Z,33.90
2022-09-05T05:39:43.165Z,33.95
2022-09-05T05:42:23.019Z,34.01
2022-09-05T05:44:56.723Z,34.04
2022-09-05T05:47:32.957Z,34.11
2022-09-05T05:50:12.201Z,34.18
2022-09-05T05:53:33.502Z,34.23
2022-09-05T05:57:21.259Z,34.28
2022-09-05T06:00:07.548Z,34.31
2022-09-05T06:03:36.533Z,34.31
2022-09-05T06:06:50.785Z,34.29
2022-09-05T06:14:51.799Z,34.29
2022-09-05T06:14:56.700Z,34.30
2022-09-05T06:17:36.314Z,34.30
2022-09-05T06:22:06.975Z,34.33
2022-09-05T06:24:46.274Z,34.36
2022-09-05T06:28:18.601Z,34.41
2022-09-05T06:31:31.456Z,34.49
2022-09-05T06:34:34.980Z,34.54
2022-09-05T06:37:26.664Z,34.58
2022-09-05T06:40:20.736Z,34.63
2022-09-05T06:43:29.980Z,34.68
2022-09-05T06:46:54.521Z,34.73
2022-09-05T06:49:32.080Z,34.80
2022-09-05T06:52:57.435Z,34.88
2022-09-05T06:55:55.737Z,34.96
2022-09-05T06:59:30.531Z,35.06
2022-09-05T07:02:23.902Z,35.12
2022-09-05T07:05:38.548Z,35.22
2022-09-05T07:08:35.847Z,35.30
2022-09-05T07:11:18.678Z,35.39
2022-09-05T07:14:03.619Z,35.46
2022-09-05T07:16:51.380Z,35.50
2022-09-05T07:19:34.416Z,35.53
2022-09-05T07:22:47.739Z,35.55
2022-09-05T07:25:18.195Z,35.60
2022-09-05T07:28:18.063Z,35.67
2022-09-05T07:30:54.028Z,35.70
2022-09-05T07:33:30.687Z,35.70
2022-09-05T07:36:12.784Z,35.72
2022-09-05T07:38:54.771Z,35.77
2022-09-05T07:41:32.961Z,35.81
2022-09-05T07:44:13.796Z,35.88
2022-09-05T07:46:50.605Z,35.92
2022-09-05T07:49:25.874Z,35.96
2022-09-05T07:56:54.954Z,36.00
2022-09-05T07:57:03.720Z,35.99
2022-09-05T07:57:52.216Z,36.00
2022-09-05T08:00:29.799Z,36.05
2022-09-05T08:03:12.117Z,36.10
2022-09-05T08:05:48.536Z,36.15
2022-09-05T08:08:27.227Z,36.20
2022-09-05T08:11:24.015Z,36.26
2022-09-05T08:14:38.341Z,36.30
2022-09-05T08:16:57.800Z,36.30
2022-09-05T08:20:17.164Z,36.29
2022-09-05T08:22:58.767Z,36.30
2022-09-05T08:25:56.791Z,36.35
2022-09-05T08:28:39.422Z,36.37
2022-09-05T08:31:18.870Z,36.40
2022-09-05T08:33:55.700Z,36.40
2022-09-05T08:36:38.035Z,36.39
2022-09-05T08:39:11.933Z,36.41
2022-09-05T08:42:13.902Z,36.42
2022-09-05T08:46:44.407Z,36.46
2022-09-05T08:48:00.135Z,36.51
2022-09-05T08:50:57.609Z,36.55
2022-09-05T08:53:49.279Z,36.60
2022-09-05T08:56:26.037Z,36.64
2022-09-05T08:59:27.790Z,36.69
2022-09-05T09:02:47.151Z,36.72
2022-09-05T09:06:14.023Z,36.76
2022-09-05T09:09:19.723Z,36.79
2022-09-05T09:12:00.284Z,36.83
2022-09-05T09:14:56.818Z,36.86
2022-09-05T09:17:45.876Z,36.86
2022-09-05T09:20:38.066Z,36.87
2022-09-05T09:23:42.029Z,36.90
2022-09-05T09:26:17.749Z,36.93
2022-09-05T09:28:58.922Z,36.99
2022-09-05T09:31:47.417Z,37.02
2022-09-05T09:34:45.739Z,37.02
2022-09-05T09:38:00.109Z,37.03
2022-09-05T09:41:27.428Z,37.04
2022-09-05T09:45:22.931Z,37.06
2022-09-05T09:49:03.314Z,37.02
2022-09-05T09:52:23.562Z,37.03
2022-09-05T09:56:06.942Z,37.00
2022-09-05T09:59:54.291Z,37.01
2022-09-05T10:05:28.860Z,37.00
2022-09-05T10:10:47.752Z,37.00
2022-09-05T10:11:23.798Z,37.00
2022-09-05T10:14:49.157Z,37.00
2022-09-05T10:17:55.415Z,36.96
2022-09-05T10:21:16.414Z,36.92
2022-09-05T10:24:20.877Z,36.94
2022-09-05T10:27:25.213Z,36.93
2022-09-05T10:30:17.983Z,36.93
2022-09-05T10:35:14.945Z,36.93
2022-09-05T10:36:29.509Z,36.93
2022-09-05T10:39:18.463Z,36.94
2022-09-05T10:42:03.434Z,36.95
2022-09-05T10:44:42.575Z,36.96
2022-09-05T10:47:43.204Z,36.98
2022-09-05T10:50:30.956Z,36.97
2022-09-05T10:53:22.697Z,36.95
2022-09-05T10:56:07.439Z,36.90
2022-09-05T11:02:16.277Z,36.86
2022-09-05T11:02:30.090Z,36.81
2022-09-05T11:05:22.379Z,36.75
2022-09-05T11:08:08.895Z,36.71
2022-09-05T11:10:53.062Z,36.71
2022-09-05T11:13:46.950Z,36.71
2022-09-05T11:16:37.002Z,36.73
2022-09-05T11:19:19.101Z,36.74
2022-09-05T11:22:07.446Z,36.73
2022-09-05T11:24:59.365Z,36.72
2022-09-05T11:27:40.966Z,36.71
2022-09-05T11:30:30.354Z,36.71
2022-09-05T11:37:27.366Z,36.69
2022-09-05T11:39:54.715Z,36.64
2022-09-05T11:40:35.420Z,36.58
2022-09-05T11:44:26.317Z,36.55
2022-09-05T11:47:48.063Z,36.48
2022-09-05T11:51:03.282Z,36.45
2022-09-05T11:54:09.414Z,36.44
2022-09-05T11:57:34.727Z,36.41
2022-09-05T12:00:33.170Z,36.35
2022-09-05T12:04:05.742Z,36.27
2022-09-05T12:07:34.286Z,36.21
2022-09-05T12:10:47.224Z,36.20
2022-09-05T12:13:46.772Z,36.19
2022-09-05T12:16:59.375Z,36.18
2022-09-05T12:19:40.160Z,36.19
2022-09-05T12:22:32.528Z,36.21
2022-09-05T12:27:35.863Z,36.23
2022-09-05T12:29:27.658Z,36.19
2022-09-05T12:32:48.892Z,36.17
2022-09-05T12:36:13.159Z,36.13
2022-09-05T12:40:54.696Z,36.13
2022-09-05T12:41:39.644Z,36.13
2022-09-05T12:44:42.439Z,36.13
2022-09-05T12:47:32.617Z,36.12
2022-09-05T12:50:14.089Z,36.10
2022-09-05T12:52:48.889Z,36.08
2022-09-05T12:55:29.281Z,36.08
2022-09-05T13:02:55.168Z,36.07
2022-09-05T13:03:11.349Z,36.04
2022-09-05T13:04:35.430Z,35.99
2022-09-05T13:07:21.665Z,36.00
2022-09-05T13:12:22.114Z,35.97
2022-09-05T13:14:54.535Z,35.92
2022-09-05T13:15:55.905Z,35.87
2022-09-05T13:18:31.217Z,35.86
2022-09-05T13:21:06.985Z,35.84
2022-09-05T13:23:47.553Z,35.83
2022-09-05T13:26:28.348Z,35.78
2022-09-05T13:29:10.390Z,35.76
2022-09-05T13:38:05.803Z,35.73
2022-09-05T13:38:16.017Z,35.68
2022-09-05T13:41:27.638Z,35.65
2022-09-05T13:44:27.323Z,35.63
2022-09-05T13:47:05.164Z,35.58
2022-09-05T13:50:12.149Z,35.54
2022-09-05T13:52:50.225Z,35.50
2022-09-05T13:55:33.488Z,35.49
2022-09-05T13:58:12.528Z,35.46
2022-09-05T14:01:32.766Z,35.42
2022-09-05T14:05:19.442Z,35.38
2022-09-05T14:09:34.999Z,35.33
2022-09-05T14:12:13.971Z,35.28
2022-09-05T14:15:10.072Z,35.25
2022-09-05T14:18:20.121Z,35.20
2022-09-05T14:21:16.057Z,35.20
2022-09-05T14:23:56.704Z,35.15
2022-09-05T14:26:36.909Z,35.11
2022-09-05T14:29:19.909Z,35.08
2022-09-05T14:37:46.092Z,35.04
2022-09-05T14:37:54.785Z,35.07
2022-09-05T14:38:33.636Z,35.03
2022-09-05T14:42:07.270Z,35.03
2022-09-05T14:45:18.323Z,35.00
2022-09-05T14:48:33.717Z,34.97
2022-09-05T14:51:25.273Z,34.96
2022-09-05T14:54:03.096Z,34.97
2022-09-05T14:59:51.119Z,34.98
2022-09-05T15:02:50.753Z,34.94
2022-09-05T15:02:54.500Z,34.96
2022-09-05T15:05:50.856Z,34.92
2022-09-05T15:10:35.147Z,34.92
2022-09-05T15:12:18.701Z,34.91
2022-09-05T15:14:20.728Z,34.86
2022-09-05T15:17:03.967Z,34.81
2022-09-05T15:20:06.637Z,34.77
2022-09-05T15:22:43.260Z,34.74
2022-09-05T15:25:21.925Z,34.72
2022-09-05T15:27:53.627Z,34.69
2022-09-05T15:30:34.849Z,34.68
2022-09-05T15:33:25.650Z,34.67
2022-09-05T15:35:58.876Z,34.64
2022-09-05T15:38:55.456Z,34.64
2022-09-05T15:41:26.995Z,34.61
2022-09-05T15:44:09.585Z,34.60
2022-09-05T15:46:51.866Z,34.59
2022-09-05T15:49:38.780Z,34.58
2022-09-05T15:52:36.227Z,34.56
2022-09-05T15:55:16.998Z,34.53
2022-09-05T15:57:53.693Z,34.50
2022-09-05T16:00:51.513Z,34.50
2022-09-05T16:03:49.715Z,34.49
2022-09-05T16:10:29.489Z,34.48
2022-09-05T16:10:37.637Z,34.45
2022-09-05T16:12:38.467Z,34.44
2022-09-05T16:16:32.283Z,34.42
2022-09-05T16:23:14.715Z,34.38
2022-09-05T16:23:24.547Z,34.35
2022-09-05T16:24:17.155Z,34.33
2022-09-05T16:26:58.646Z,34.30
2022-09-05T16:29:34.907Z,34.28
2022-09-05T16:32:27.331Z,34.26
2022-09-05T16:35:03.375Z,34.23
2022-09-05T16:37:43.685Z,34.23
2022-09-05T16:40:23.993Z,34.25
2022-09-05T16:43:03.268Z,34.24
2022-09-05T16:45:47.401Z,34.26
2022-09-05T16:48:40.782Z,34.24
2022-09-05T16:51:34.790Z,34.21
2022-09-05T16:54:18.574Z,34.19
2022-09-05T16:56:55.228Z,34.20
2022-09-05T16:59:30.313Z,34.20
2022-09-05T17:02:14.243Z,34.20
2022-09-05T17:05:12.252Z,34.17
2022-09-05T17:08:06.332Z,34.14
2022-09-05T17:10:49.334Z,34.15
2022-09-05T17:13:46.046Z,34.14
2022-09-05T17:16:28.766Z,34.14
2022-09-05T17:19:03.944Z,34.13
2022-09-05T17:24:00.542Z,34.11
2022-09-05T17:29:16.926Z,34.06
2022-09-05T17:29:23.474Z,34.06
2022-09-05T17:31:49.789Z,34.22
2022-09-05T17:33:56.902Z,34.54
2022-09-05T17:36:42.554Z,34.35
2022-09-05T17:39:44.574Z,34.22
2022-09-05T17:42:34.585Z,34.13
2022-09-05T17:45:19.476Z,34.08
2022-09-05T17:47:54.351Z,34.05
2022-09-05T17:50:54.607Z,34.01
2022-09-05T17:53:31.514Z,33.97
2022-09-05T17:56:36.001Z,33.94
2022-09-05T17:59:27.539Z,33.94
2022-09-05T18:02:33.572Z,33.92
2022-09-05T18:05:09.360Z,33.91
2022-09-05T18:07:58.794Z,33.92
2022-09-05T18:11:13.986Z,33.91
2022-09-05T18:14:02.281Z,33.91
2022-09-05T18:17:36.156Z,33.92
2022-09-05T18:20:06.511Z,33.88
2022-09-05T18:22:45.470Z,33.88
2022-09-05T18:25:30.578Z,33.89
2022-09-05T18:28:23.616Z,33.88
2022-09-05T18:30:55.766Z,33.88
2022-09-05T18:33:55.320Z,33.90
2022-09-05T18:36:37.740Z,33.89
2022-09-05T18:39:46.466Z,33.87
2022-09-05T18:42:33.083Z,33.87
2022-09-05T18:45:17.772Z,33.86
2022-09-05T18:48:04.444Z,33.86
2022-09-05T18:50:49.232Z,33.84
2022-09-05T18:53:31.973Z,33.82
2022-09-05T18:56:20.318Z,33.80
2022-09-05T18:59:10.551Z,33.78
2022-09-05T19:01:52.381Z,33.76
2022-09-05T19:04:39.120Z,33.76
2022-09-05T19:07:16.415Z,33.75
2022-09-05T19:10:33.854Z,33.76
2022-09-05T19:13:03.627Z,33.75
2022-09-05T19:15:38.908Z,33.75
2022-09-05T19:18:26.136Z,33.75
2022-09-05T19:21:13.681Z,33.74
2022-09-05T19:23:54.035Z,33.73
2022-09-05T19:26:27.113Z,33.74
2022-09-05T19:37:03.611Z,33.72
2022-09-05T19:37:14.785Z,33.73
2022-09-05T19:37:15.243Z,33.73
2022-09-05T19:37:50.188Z,33.71
2022-09-05T19:47:30.753Z,33.68
2022-09-05T19:47:43.039Z,33.61
2022-09-05T19:47:44.057Z,33.62
2022-09-05T19:49:12.896Z,33.61
2022-09-05T19:51:45.288Z,33.62
2022-09-05T19:54:30.894Z,33.64
2022-09-05T19:57:06.714Z,33.63
2022-09-05T19:59:40.373Z,33.65
2022-09-05T20:02:20.219Z,33.65
2022-09-05T20:04:55.006Z,33.66
2022-09-05T20:07:30.954Z,33.66
2022-09-05T20:10:07.519Z,33.66
2022-09-05T20:12:41.876Z,33.66
2022-09-05T20:15:24.402Z,33.65
2022-09-05T20:17:56.262Z,33.65
2022-09-05T20:20:30.979Z,33.64
2022-09-05T20:23:06.148Z,33.62
2022-09-05T20:25:44.910Z,33.61
2022-09-05T20:28:22.421Z,33.61
2022-09-05T20:30:59.005Z,33.60
2022-09-05T20:33:36.910Z,33.61
2022-09-05T20:42:40.071Z,33.61
2022-09-05T20:43:26.644Z,33.59
2022-09-05T20:43:29.306Z,33.58
2022-09-05T20:44:57.637Z,33.56
2022-09-05T20:50:34.118Z,33.58
2022-09-05T20:54:18.416Z,33.56
2022-09-05T20:54:21.140Z,33.56
2022-09-05T20:56:26.566Z,33.55
2022-09-05T20:58:58.971Z,33.56
2022-09-05T21:01:33.089Z,33.55
2022-09-05T21:04:06.849Z,33.55
2022-09-05T21:06:41.906Z,33.54
2022-09-05T21:09:24.609Z,33.53
2022-09-05T21:11:59.163Z,33.51
2022-09-05T21:14:32.251Z,33.50
2022-09-05T21:17:16.001Z,33.52
2022-09-05T21:19:53.785Z,33.49
2022-09-05T21:22:39.422Z,33.48
2022-09-05T21:25:44.276Z,33.47
2022-09-05T21:28:36.697Z,33.46
2022-09-05T21:31:16.046Z,33.44
2022-09-05T21:33:50.533Z,33.43
2022-09-05T21:36:28.380Z,33.42
2022-09-05T21:38:59.190Z,33.41
2022-09-05T21:41:29.085Z,33.40
2022-09-05T21:47:41.523Z,33.39
2022-09-05T21:47:43.209Z,33.40
2022-09-05T21:49:46.374Z,33.37
2022-09-05T21:52:16.993Z,33.37
2022-09-05T21:59:16.654Z,33.36
2022-09-05T21:59:29.496Z,33.36
2022-09-05T22:00:36.193Z,33.34
2022-09-05T22:03:18.601Z,33.33
2022-09-05T22:06:10.170Z,33.33
2022-09-05T22:09:09.892Z,33.31
2022-09-05T22:11:42.685Z,33.29
2022-09-05T22:14:15.326Z,33.29
2022-09-05T22:16:53.621Z,33.28
2022-09-05T22:19:39.678Z,33.30
2022-09-05T22:22:21.686Z,33.29
2022-09-05T22:25:03.212Z,33.27
2022-09-05T22:27:38.841Z,33.26
2022-09-05T22:30:14.538Z,33.26
2022-09-05T22:32:48.114Z,33.25
2022-09-05T22:35:28.650Z,33.26
2022-09-05T22:38:20.103Z,33.24
2022-09-05T22:41:00.863Z,33.22
2022-09-05T22:43:38.128Z,33.21
2022-09-05T22:46:16.131Z,33.21
2022-09-05T22:48:53.993Z,33.20
2022-09-05T22:51:28.690Z,33.19
2022-09-05T22:54:13.674Z,33.19
2022-09-05T22:56:48.450Z,33.18
2022-09-05T22:59:21.404Z,33.18
2022-09-05T23:01:56.994Z,33.19
2022-09-05T23:04:33.712Z,33.18
2022-09-05T23:07:11.319Z,33.17
2022-09-05T23:09:45.132Z,33.17
2022-09-05T23:12:22.801Z,33.16
2022-09-05T23:15:00.698Z,33.15
2022-09-05T23:17:37.646Z,33.13
2022-09-05T23:20:14.493Z,33.11
2022-09-05T23:22:49.268Z,33.11
2022-09-05T23:25:29.621Z,33.10
2022-09-05T23:28:00.880Z,33.07
2022-09-05T23:30:35.940Z,33.04
2022-09-05T23:33:12.858Z,33.04
2022-09-05T23:35:44.243Z,33.03
2022-09-05T23:38:21.828Z,33.01
2022-09-05T23:41:03.406Z,33.00
2022-09-05T23:43:36.824Z,32.97
2022-09-05T23:46:12.260Z,32.96
2022-09-05T23:48:47.787Z,32.93
2022-09-05T23:51:18.951Z,32.91
2022-09-05T23:53:48.959Z,32.89
2022-09-05T23:56:21.604Z,32.88
2022-09-05T23:58:52.715Z,32.87
